sensor_id;sensor_type;location;lat;lon;timestamp;pressure;altitude;pressure_sealevel;temperature
45034;BMP280;30771;47.988;-4.186;2023-05-16T05:47:45;99921.00;;;10.25
45034;BMP280;30771;47.988;-4.186;2023-05-16T05:50:11;99931.06;;;10.35
45034;BMP280;30771;47.988;-4.186;2023-05-16T05:52:37;99921.88;;;10.44
45034;BMP280;30771;47.988;-4.186;2023-05-16T05:55:02;99922.44;;;10.52
45034;BMP280;30771;47.988;-4.186;2023-05-16T05:57:27;99912.44;;;10.61
45034;BMP280;30771;47.988;-4.186;2023-05-16T05:59:53;99914.03;;;10.68
45034;BMP280;30771;47.988;-4.186;2023-05-16T06:02:18;99905.06;;;10.76
45034;BMP280;30771;47.988;-4.186;2023-05-16T06:04:43;99895.53;;;10.81
45034;BMP280;30771;47.988;-4.186;2023-05-16T06:07:09;99890.00;;;10.89
45034;BMP280;30771;47.988;-4.186;2023-05-16T06:09:34;99888.13;;;10.96
45034;BMP280;30771;47.988;-4.186;2023-05-16T06:11:59;99876.28;;;11.05
45034;BMP280;30771;47.988;-4.186;2023-05-16T06:14:25;99879.66;;;11.12
45034;BMP280;30771;47.988;-4.186;2023-05-16T06:16:50;99865.59;;;11.19
45034;BMP280;30771;47.988;-4.186;2023-05-16T06:19:15;99861.28;;;11.24
45034;BMP280;30771;47.988;-4.186;2023-05-16T06:21:41;99846.00;;;11.33
45034;BMP280;30771;47.988;-4.186;2023-05-16T06:24:07;99844.91;;;11.40
45034;BMP280;30771;47.988;-4.186;2023-05-16T06:26:32;99825.94;;;11.50
45034;BMP280;30771;47.988;-4.186;2023-05-16T06:28:57;99818.88;;;11.62
45034;BMP280;30771;47.988;-4.186;2023-05-16T06:31:23;99815.13;;;11.69
45034;BMP280;30771;47.988;-4.186;2023-05-16T06:33:48;99811.59;;;11.75
45034;BMP280;30771;47.988;-4.186;2023-05-16T06:36:14;99797.78;;;11.80
45034;BMP280;30771;47.988;-4.186;2023-05-16T06:38:39;99778.63;;;11.84
45034;BMP280;30771;47.988;-4.186;2023-05-16T06:41:04;99770.38;;;11.92
45034;BMP280;30771;47.988;-4.186;2023-05-16T06:43:30;99756.41;;;12.03
45034;BMP280;30771;47.988;-4.186;2023-05-16T06:45:55;99748.50;;;12.15
45034;BMP280;30771;47.988;-4.186;2023-05-16T06:48:20;99733.47;;;12.27
45034;BMP280;30771;47.988;-4.186;2023-05-16T06:50:46;99728.22;;;12.39
45034;BMP280;30771;47.988;-4.186;2023-05-16T06:53:11;99709.94;;;12.49
45034;BMP280;30771;47.988;-4.186;2023-05-16T06:55:37;99690.31;;;12.56
45034;BMP280;30771;47.988;-4.186;2023-05-16T06:58:02;99674.00;;;12.59
45034;BMP280;30771;47.988;-4.186;2023-05-16T07:00:27;99653.53;;;12.66
45034;BMP280;30771;47.988;-4.186;2023-05-16T07:02:52;99649.03;;;12.78
45034;BMP280;30771;47.988;-4.186;2023-05-16T07:05:18;99644.03;;;12.93
45034;BMP280;30771;47.988;-4.186;2023-05-16T07:07:43;99631.28;;;13.02
45034;BMP280;30771;47.988;-4.186;2023-05-16T07:10:09;99626.75;;;13.14
45034;BMP280;30771;47.988;-4.186;2023-05-16T07:12:35;99614.25;;;13.26
45034;BMP280;30771;47.988;-4.186;2023-05-16T07:15:03;99602.78;;;13.37
45034;BMP280;30771;47.988;-4.186;2023-05-16T07:17:28;99604.88;;;13.52
45034;BMP280;30771;47.988;-4.186;2023-05-16T07:19:54;99608.47;;;13.62
45034;BMP280;30771;47.988;-4.186;2023-05-16T07:22:19;99609.66;;;13.66
45034;BMP280;30771;47.988;-4.186;2023-05-16T07:24:44;99612.41;;;13.76
45034;BMP280;30771;47.988;-4.186;2023-05-16T07:27:10;99624.44;;;13.84
45034;BMP280;30771;47.988;-4.186;2023-05-16T07:29:36;99627.56;;;13.97
45034;BMP280;30771;47.988;-4.186;2023-05-16T07:32:02;99635.91;;;14.11
45034;BMP280;30771;47.988;-4.186;2023-05-16T07:34:27;99680.72;;;14.12
45034;BMP280;30771;47.988;-4.186;2023-05-16T07:36:52;99688.78;;;14.22
45034;BMP280;30771;47.988;-4.186;2023-05-16T07:39:18;99702.22;;;14.37
45034;BMP280;30771;47.988;-4.186;2023-05-16T07:41:43;99730.22;;;14.50
45034;BMP280;30771;47.988;-4.186;2023-05-16T07:44:08;99734.13;;;14.64
45034;BMP280;30771;47.988;-4.186;2023-05-16T07:46:34;99746.03;;;14.83
45034;BMP280;30771;47.988;-4.186;2023-05-16T07:48:59;99750.44;;;14.99
45034;BMP280;30771;47.988;-4.186;2023-05-16T07:51:24;99790.84;;;15.06
45034;BMP280;30771;47.988;-4.186;2023-05-16T07:53:50;99793.44;;;15.23
45034;BMP280;30771;47.988;-4.186;2023-05-16T07:56:16;99809.44;;;15.33
45034;BMP280;30771;47.988;-4.186;2023-05-16T07:58:41;99860.38;;;15.30
45034;BMP280;30771;47.988;-4.186;2023-05-16T08:01:06;99879.59;;;15.42
45034;BMP280;30771;47.988;-4.186;2023-05-16T08:03:32;99907.09;;;15.57
45034;BMP280;30771;47.988;-4.186;2023-05-16T08:05:57;99938.56;;;15.71
45034;BMP280;30771;47.988;-4.186;2023-05-16T08:08:22;99965.63;;;15.68
45034;BMP280;30771;47.988;-4.186;2023-05-16T08:10:47;99955.16;;;15.83
45034;BMP280;30771;47.988;-4.186;2023-05-16T08:13:13;99951.16;;;16.07
45034;BMP280;30771;47.988;-4.186;2023-05-16T08:15:38;99983.00;;;16.28
45034;BMP280;30771;47.988;-4.186;2023-05-16T08:18:03;100042.09;;;16.35
45034;BMP280;30771;47.988;-4.186;2023-05-16T08:20:31;100057.59;;;16.48
45034;BMP280;30771;47.988;-4.186;2023-05-16T08:22:56;100080.63;;;16.64
45034;BMP280;30771;47.988;-4.186;2023-05-16T08:25:21;100095.72;;;16.85
45034;BMP280;30771;47.988;-4.186;2023-05-16T08:27:47;100113.94;;;16.99
45034;BMP280;30771;47.988;-4.186;2023-05-16T08:30:13;100191.88;;;16.99
45034;BMP280;30771;47.988;-4.186;2023-05-16T08:32:38;100252.75;;;16.96
45034;BMP280;30771;47.988;-4.186;2023-05-16T08:35:03;100279.91;;;16.98
45034;BMP280;30771;47.988;-4.186;2023-05-16T08:37:29;100295.94;;;17.03
45034;BMP280;30771;47.988;-4.186;2023-05-16T08:39:54;100283.84;;;17.17
45034;BMP280;30771;47.988;-4.186;2023-05-16T08:42:20;100311.44;;;17.32
45034;BMP280;30771;47.988;-4.186;2023-05-16T08:44:45;100336.34;;;17.48
45034;BMP280;30771;47.988;-4.186;2023-05-16T08:47:13;100429.69;;;17.41
45034;BMP280;30771;47.988;-4.186;2023-05-16T08:49:41;100435.91;;;17.47
45034;BMP280;30771;47.988;-4.186;2023-05-16T08:52:07;100457.03;;;17.58
45034;BMP280;30771;47.988;-4.186;2023-05-16T08:54:33;100492.28;;;17.65
45034;BMP280;30771;47.988;-4.186;2023-05-16T08:56:58;100578.69;;;17.53
45034;BMP280;30771;47.988;-4.186;2023-05-16T08:59:24;100572.44;;;17.64
45034;BMP280;30771;47.988;-4.186;2023-05-16T09:01:50;100594.59;;;17.86
45034;BMP280;30771;47.988;-4.186;2023-05-16T09:04:15;100609.50;;;18.08
45034;BMP280;30771;47.988;-4.186;2023-05-16T09:06:40;100736.06;;;18.06
45034;BMP280;30771;47.988;-4.186;2023-05-16T09:09:06;100798.00;;;18.13
45034;BMP280;30771;47.988;-4.186;2023-05-16T09:11:33;100944.78;;;18.06
45034;BMP280;30771;47.988;-4.186;2023-05-16T09:13:59;101069.06;;;17.73
45034;BMP280;30771;47.988;-4.186;2023-05-16T09:16:24;101148.22;;;17.49
45034;BMP280;30771;47.988;-4.186;2023-05-16T09:18:58;101118.81;;;17.44
45034;BMP280;30771;47.988;-4.186;2023-05-16T09:21:26;101073.28;;;17.57
45034;BMP280;30771;47.988;-4.186;2023-05-16T09:23:52;101050.94;;;17.70
45034;BMP280;30771;47.988;-4.186;2023-05-16T09:26:17;101042.81;;;18.04
45034;BMP280;30771;47.988;-4.186;2023-05-16T09:28:42;101076.31;;;18.28
45034;BMP280;30771;47.988;-4.186;2023-05-16T09:31:21;101132.69;;;18.20
45034;BMP280;30771;47.988;-4.186;2023-05-16T09:33:47;101241.06;;;18.15
45034;BMP280;30771;47.988;-4.186;2023-05-16T09:36:14;101280.16;;;17.98
45034;BMP280;30771;47.988;-4.186;2023-05-16T09:38:39;101265.31;;;17.67
45034;BMP280;30771;47.988;-4.186;2023-05-16T09:41:05;101217.69;;;17.59
45034;BMP280;30771;47.988;-4.186;2023-05-16T09:43:30;101223.81;;;17.48
45034;BMP280;30771;47.988;-4.186;2023-05-16T09:45:58;101284.16;;;17.54
45034;BMP280;30771;47.988;-4.186;2023-05-16T09:48:23;101314.31;;;17.66
45034;BMP280;30771;47.988;-4.186;2023-05-16T09:50:52;101355.09;;;17.67
45034;BMP280;30771;47.988;-4.186;2023-05-16T09:53:28;101384.53;;;17.72
45034;BMP280;30771;47.988;-4.186;2023-05-16T09:56:03;101376.56;;;17.95
45034;BMP280;30771;47.988;-4.186;2023-05-16T09:58:32;101358.63;;;18.48
45034;BMP280;30771;47.988;-4.186;2023-05-16T10:00:58;101337.19;;;18.94
45034;BMP280;30771;47.988;-4.186;2023-05-16T10:03:25;101348.75;;;19.28
45034;BMP280;30771;47.988;-4.186;2023-05-16T10:05:51;101389.19;;;19.31
45034;BMP280;30771;47.988;-4.186;2023-05-16T10:08:17;101392.19;;;19.51
45034;BMP280;30771;47.988;-4.186;2023-05-16T10:10:44;101393.44;;;19.77
45034;BMP280;30771;47.988;-4.186;2023-05-16T10:13:09;101395.97;;;20.00
45034;BMP280;30771;47.988;-4.186;2023-05-16T10:15:35;101406.97;;;20.20
45034;BMP280;30771;47.988;-4.186;2023-05-16T10:18:01;101437.28;;;20.26
45034;BMP280;30771;47.988;-4.186;2023-05-16T10:20:27;101471.81;;;20.11
45034;BMP280;30771;47.988;-4.186;2023-05-16T10:22:54;101462.91;;;20.22
45034;BMP280;30771;47.988;-4.186;2023-05-16T10:25:33;101481.47;;;20.28
45034;BMP280;30771;47.988;-4.186;2023-05-16T10:28:00;101522.41;;;19.84
45034;BMP280;30771;47.988;-4.186;2023-05-16T10:30:26;101517.28;;;19.54
45034;BMP280;30771;47.988;-4.186;2023-05-16T10:32:52;101525.25;;;19.38
45034;BMP280;30771;47.988;-4.186;2023-05-16T10:35:18;101526.81;;;18.88
45034;BMP280;30771;47.988;-4.186;2023-05-16T10:37:44;101510.44;;;18.61
45034;BMP280;30771;47.988;-4.186;2023-05-16T10:40:10;101503.13;;;18.57
45034;BMP280;30771;47.988;-4.186;2023-05-16T10:42:36;101490.63;;;18.57
45034;BMP280;30771;47.988;-4.186;2023-05-16T10:45:34;101468.34;;;18.75
45034;BMP280;30771;47.988;-4.186;2023-05-16T10:47:56;101460.63;;;19.13
45034;BMP280;30771;47.988;-4.186;2023-05-16T10:50:39;101501.19;;;18.87
45034;BMP280;30771;47.988;-4.186;2023-05-16T10:55:43;101496.09;;;18.51
45034;BMP280;30771;47.988;-4.186;2023-05-16T10:58:08;101478.44;;;18.50
45034;BMP280;30771;47.988;-4.186;2023-05-16T11:00:34;101471.00;;;18.40
45034;BMP280;30771;47.988;-4.186;2023-05-16T11:03:05;101476.97;;;18.24
45034;BMP280;30771;47.988;-4.186;2023-05-16T11:05:32;101469.06;;;18.06
45034;BMP280;30771;47.988;-4.186;2023-05-16T11:08:06;101451.97;;;18.37
45034;BMP280;30771;47.988;-4.186;2023-05-16T11:10:31;101446.41;;;18.84
45034;BMP280;30771;47.988;-4.186;2023-05-16T11:13:06;101449.81;;;19.19
45034;BMP280;30771;47.988;-4.186;2023-05-16T11:15:32;101450.75;;;19.53
45034;BMP280;30771;47.988;-4.186;2023-05-16T11:18:08;101455.66;;;19.89
45034;BMP280;30771;47.988;-4.186;2023-05-16T11:20:37;101452.78;;;20.24
45034;BMP280;30771;47.988;-4.186;2023-05-16T11:25:56;101457.16;;;20.68
45034;BMP280;30771;47.988;-4.186;2023-05-16T11:28:25;101458.41;;;20.60
45034;BMP280;30771;47.988;-4.186;2023-05-16T11:30:54;101474.97;;;20.08
45034;BMP280;30771;47.988;-4.186;2023-05-16T11:33:21;101469.94;;;19.66
45034;BMP280;30771;47.988;-4.186;2023-05-16T11:36:00;101477.28;;;19.43
45034;BMP280;30771;47.988;-4.186;2023-05-16T11:38:28;101476.16;;;19.27
45034;BMP280;30771;47.988;-4.186;2023-05-16T11:40:53;101500.38;;;18.86
45034;BMP280;30771;47.988;-4.186;2023-05-16T11:43:20;101483.31;;;18.41
45034;BMP280;30771;47.988;-4.186;2023-05-16T11:45:45;101484.69;;;18.32
45034;BMP280;30771;47.988;-4.186;2023-05-16T11:48:11;101492.41;;;18.22
45034;BMP280;30771;47.988;-4.186;2023-05-16T11:50:36;101487.47;;;18.37
45034;BMP280;30771;47.988;-4.186;2023-05-16T11:53:02;101480.63;;;18.53
45034;BMP280;30771;47.988;-4.186;2023-05-16T11:55:29;101484.59;;;18.62
45034;BMP280;30771;47.988;-4.186;2023-05-16T11:57:56;101494.09;;;18.58
45034;BMP280;30771;47.988;-4.186;2023-05-16T12:00:22;101493.84;;;18.36
45034;BMP280;30771;47.988;-4.186;2023-05-16T12:02:51;101490.22;;;18.19
45034;BMP280;30771;47.988;-4.186;2023-05-16T12:05:17;101488.97;;;18.21
45034;BMP280;30771;47.988;-4.186;2023-05-16T12:07:43;101469.84;;;18.59
45034;BMP280;30771;47.988;-4.186;2023-05-16T12:10:09;101461.22;;;19.03
45034;BMP280;30771;47.988;-4.186;2023-05-16T12:12:35;101470.28;;;19.14
45034;BMP280;30771;47.988;-4.186;2023-05-16T12:15:02;101475.16;;;19.05
45034;BMP280;30771;47.988;-4.186;2023-05-16T12:17:28;101486.28;;;19.02
45034;BMP280;30771;47.988;-4.186;2023-05-16T12:19:53;101485.03;;;19.05
45034;BMP280;30771;47.988;-4.186;2023-05-16T12:22:18;101458.00;;;19.41
45034;BMP280;30771;47.988;-4.186;2023-05-16T12:24:44;101448.84;;;19.81
45034;BMP280;30771;47.988;-4.186;2023-05-16T12:27:09;101440.72;;;20.21
45034;BMP280;30771;47.988;-4.186;2023-05-16T12:29:35;101426.91;;;20.67
45034;BMP280;30771;47.988;-4.186;2023-05-16T12:32:00;101429.59;;;21.10
45034;BMP280;30771;47.988;-4.186;2023-05-16T12:34:27;101453.75;;;21.15
45034;BMP280;30771;47.988;-4.186;2023-05-16T12:36:53;101462.81;;;21.09
45034;BMP280;30771;47.988;-4.186;2023-05-16T12:39:18;101472.69;;;20.49
45034;BMP280;30771;47.988;-4.186;2023-05-16T12:41:44;101477.53;;;19.86
45034;BMP280;30771;47.988;-4.186;2023-05-16T12:44:10;101474.84;;;19.69
45034;BMP280;30771;47.988;-4.186;2023-05-16T12:46:39;101477.34;;;19.76
45034;BMP280;30771;47.988;-4.186;2023-05-16T12:49:05;101474.94;;;19.74
45034;BMP280;30771;47.988;-4.186;2023-05-16T12:51:30;101471.72;;;19.61
45034;BMP280;30771;47.988;-4.186;2023-05-16T12:53:56;101470.13;;;19.60
45034;BMP280;30771;47.988;-4.186;2023-05-16T12:56:22;101459.56;;;19.81
45034;BMP280;30771;47.988;-4.186;2023-05-16T12:58:49;101446.34;;;20.25
45034;BMP280;30771;47.988;-4.186;2023-05-16T13:01:15;101442.50;;;20.70
45034;BMP280;30771;47.988;-4.186;2023-05-16T13:03:40;101441.50;;;20.98
45034;BMP280;30771;47.988;-4.186;2023-05-16T13:06:05;101429.31;;;21.33
45034;BMP280;30771;47.988;-4.186;2023-05-16T13:08:31;101423.72;;;21.66
45034;BMP280;30771;47.988;-4.186;2023-05-16T13:10:56;101440.88;;;21.65
45034;BMP280;30771;47.988;-4.186;2023-05-16T13:13:23;101476.25;;;21.14
45034;BMP280;30771;47.988;-4.186;2023-05-16T13:15:48;101477.09;;;20.39
45034;BMP280;30771;47.988;-4.186;2023-05-16T13:18:13;101472.06;;;20.09
45034;BMP280;30771;47.988;-4.186;2023-05-16T13:20:39;101469.75;;;19.84
45034;BMP280;30771;47.988;-4.186;2023-05-16T13:23:04;101470.88;;;19.72
45034;BMP280;30771;47.988;-4.186;2023-05-16T13:25:32;101457.00;;;19.58
45034;BMP280;30771;47.988;-4.186;2023-05-16T13:27:57;101454.66;;;19.62
45034;BMP280;30771;47.988;-4.186;2023-05-16T13:30:22;101448.34;;;19.68
45034;BMP280;30771;47.988;-4.186;2023-05-16T13:32:48;101441.19;;;19.85
45034;BMP280;30771;47.988;-4.186;2023-05-16T13:35:14;101422.44;;;20.18
45034;BMP280;30771;47.988;-4.186;2023-05-16T13:37:40;101428.63;;;20.57
45034;BMP280;30771;47.988;-4.186;2023-05-16T13:40:05;101425.88;;;20.90
45034;BMP280;30771;47.988;-4.186;2023-05-16T13:42:34;101439.94;;;20.80
45034;BMP280;30771;47.988;-4.186;2023-05-16T13:45:00;101444.03;;;20.28
45034;BMP280;30771;47.988;-4.186;2023-05-16T13:47:25;101453.56;;;19.91
45034;BMP280;30771;47.988;-4.186;2023-05-16T13:49:50;101450.34;;;19.61
45034;BMP280;30771;47.988;-4.186;2023-05-16T13:52:16;101443.06;;;19.56
45034;BMP280;30771;47.988;-4.186;2023-05-16T13:54:41;101447.78;;;19.38
45034;BMP280;30771;47.988;-4.186;2023-05-16T13:57:06;101458.72;;;19.25
45034;BMP280;30771;47.988;-4.186;2023-05-16T13:59:32;101447.16;;;19.19
45034;BMP280;30771;47.988;-4.186;2023-05-16T14:01:57;101444.47;;;19.19
45034;BMP280;30771;47.988;-4.186;2023-05-16T14:04:22;101439.50;;;19.23
45034;BMP280;30771;47.988;-4.186;2023-05-16T14:06:47;101435.88;;;19.29
45034;BMP280;30771;47.988;-4.186;2023-05-16T14:09:13;101427.25;;;19.55
45034;BMP280;30771;47.988;-4.186;2023-05-16T14:11:39;101423.25;;;19.85
45034;BMP280;30771;47.988;-4.186;2023-05-16T14:14:04;101428.19;;;19.93
45034;BMP280;30771;47.988;-4.186;2023-05-16T14:16:29;101426.34;;;19.94
45034;BMP280;30771;47.988;-4.186;2023-05-16T14:18:55;101418.75;;;20.19
45034;BMP280;30771;47.988;-4.186;2023-05-16T14:21:21;101426.19;;;20.34
45034;BMP280;30771;47.988;-4.186;2023-05-16T14:23:46;101440.03;;;20.31
45034;BMP280;30771;47.988;-4.186;2023-05-16T14:26:12;101431.13;;;20.25
45034;BMP280;30771;47.988;-4.186;2023-05-16T14:28:37;101423.00;;;20.53
45034;BMP280;30771;47.988;-4.186;2023-05-16T14:31:04;101421.53;;;20.67
45034;BMP280;30771;47.988;-4.186;2023-05-16T14:33:29;101433.78;;;20.58
45034;BMP280;30771;47.988;-4.186;2023-05-16T14:35:56;101427.34;;;20.43
45034;BMP280;30771;47.988;-4.186;2023-05-16T14:38:22;101432.34;;;20.34
45034;BMP280;30771;47.988;-4.186;2023-05-16T14:40:47;101423.00;;;20.53
45034;BMP280;30771;47.988;-4.186;2023-05-16T14:43:13;101415.75;;;20.75
45034;BMP280;30771;47.988;-4.186;2023-05-16T14:45:38;101411.66;;;20.89
45034;BMP280;30771;47.988;-4.186;2023-05-16T14:48:04;101417.03;;;20.89
45034;BMP280;30771;47.988;-4.186;2023-05-16T14:50:30;101417.63;;;20.96
45034;BMP280;30771;47.988;-4.186;2023-05-16T14:52:55;101422.84;;;21.08
45034;BMP280;30771;47.988;-4.186;2023-05-16T14:55:20;101432.66;;;20.76
45034;BMP280;30771;47.988;-4.186;2023-05-16T14:57:46;101442.53;;;20.54
45034;BMP280;30771;47.988;-4.186;2023-05-16T15:00:13;101429.44;;;20.57
45034;BMP280;30771;47.988;-4.186;2023-05-16T15:02:39;101428.41;;;20.58
45034;BMP280;30771;47.988;-4.186;2023-05-16T15:05:04;101417.66;;;20.75
45034;BMP280;30771;47.988;-4.186;2023-05-16T15:07:30;101404.63;;;21.05
45034;BMP280;30771;47.988;-4.186;2023-05-16T15:09:56;101403.44;;;21.17
45034;BMP280;30771;47.988;-4.186;2023-05-16T15:12:21;101419.19;;;20.92
45034;BMP280;30771;47.988;-4.186;2023-05-16T15:14:46;101429.25;;;20.42
45034;BMP280;30771;47.988;-4.186;2023-05-16T15:17:11;101423.34;;;20.24
45034;BMP280;30771;47.988;-4.186;2023-05-16T15:19:37;101432.50;;;20.11
45034;BMP280;30771;47.988;-4.186;2023-05-16T15:22:02;101427.16;;;20.11
45034;BMP280;30771;47.988;-4.186;2023-05-16T15:24:31;101430.09;;;20.10
45034;BMP280;30771;47.988;-4.186;2023-05-16T15:26:56;101425.31;;;20.12
45034;BMP280;30771;47.988;-4.186;2023-05-16T15:29:21;101417.09;;;20.18
45034;BMP280;30771;47.988;-4.186;2023-05-16T15:31:47;101439.81;;;19.99
45034;BMP280;30771;47.988;-4.186;2023-05-16T15:34:12;101444.97;;;19.72
45034;BMP280;30771;47.988;-4.186;2023-05-16T15:36:37;101443.81;;;19.68
45034;BMP280;30771;47.988;-4.186;2023-05-16T15:39:03;101450.69;;;19.64
45034;BMP280;30771;47.988;-4.186;2023-05-16T15:41:28;101449.38;;;19.67
45034;BMP280;30771;47.988;-4.186;2023-05-16T15:43:53;101455.97;;;19.76
45034;BMP280;30771;47.988;-4.186;2023-05-16T15:46:19;101454.31;;;19.58
45034;BMP280;30771;47.988;-4.186;2023-05-16T15:48:44;101442.81;;;19.58
45034;BMP280;30771;47.988;-4.186;2023-05-16T15:51:10;101447.66;;;19.44
45034;BMP280;30771;47.988;-4.186;2023-05-16T15:53:36;101452.09;;;19.39
45034;BMP280;30771;47.988;-4.186;2023-05-16T15:56:01;101452.09;;;19.39
45034;BMP280;30771;47.988;-4.186;2023-05-16T15:58:27;101449.50;;;19.44
45034;BMP280;30771;47.988;-4.186;2023-05-16T16:00:52;101449.66;;;19.54
45034;BMP280;30771;47.988;-4.186;2023-05-16T16:03:19;101463.53;;;19.51
45034;BMP280;30771;47.988;-4.186;2023-05-16T16:05:47;101480.56;;;19.33
45034;BMP280;30771;47.988;-4.186;2023-05-16T16:08:13;101473.38;;;19.22
45034;BMP280;30771;47.988;-4.186;2023-05-16T16:10:39;101470.38;;;19.19
45034;BMP280;30771;47.988;-4.186;2023-05-16T16:13:05;101463.38;;;19.29
45034;BMP280;30771;47.988;-4.186;2023-05-16T16:15:31;101453.78;;;19.45
45034;BMP280;30771;47.988;-4.186;2023-05-16T16:17:56;101457.13;;;19.52
45034;BMP280;30771;47.988;-4.186;2023-05-16T16:20:22;101457.41;;;19.67
45034;BMP280;30771;47.988;-4.186;2023-05-16T16:22:47;101470.63;;;19.45
45034;BMP280;30771;47.988;-4.186;2023-05-16T16:25:13;101477.78;;;19.28
45034;BMP280;30771;47.988;-4.186;2023-05-16T16:27:39;101465.94;;;19.36
45034;BMP280;30771;47.988;-4.186;2023-05-16T16:30:04;101479.94;;;19.43
45034;BMP280;30771;47.988;-4.186;2023-05-16T16:32:30;101489.88;;;19.31
45034;BMP280;30771;47.988;-4.186;2023-05-16T16:34:55;101496.53;;;19.17
45034;BMP280;30771;47.988;-4.186;2023-05-16T16:37:20;101491.44;;;19.04
45034;BMP280;30771;47.988;-4.186;2023-05-16T16:39:46;101493.75;;;19.12
45034;BMP280;30771;47.988;-4.186;2023-05-16T16:42:11;101494.75;;;19.11
45034;BMP280;30771;47.988;-4.186;2023-05-16T16:44:36;101493.38;;;19.08
45034;BMP280;30771;47.988;-4.186;2023-05-16T16:47:02;101494.22;;;19.09
45034;BMP280;30771;47.988;-4.186;2023-05-16T16:49:27;101499.09;;;18.89
45034;BMP280;30771;47.988;-4.186;2023-05-16T16:51:53;101507.06;;;18.66
45034;BMP280;30771;47.988;-4.186;2023-05-16T16:54:18;101511.00;;;18.52
45034;BMP280;30771;47.988;-4.186;2023-05-16T16:56:44;101494.94;;;18.58
45034;BMP280;30771;47.988;-4.186;2023-05-16T16:59:11;101494.13;;;18.69
45034;BMP280;30771;47.988;-4.186;2023-05-16T17:01:36;101501.19;;;18.75
45034;BMP280;30771;47.988;-4.186;2023-05-16T17:04:02;101506.16;;;18.72
45034;BMP280;30771;47.988;-4.186;2023-05-16T17:06:27;101509.88;;;18.71
45034;BMP280;30771;47.988;-4.186;2023-05-16T17:08:54;101522.41;;;18.70
45034;BMP280;30771;47.988;-4.186;2023-05-16T17:11:20;101516.16;;;18.65
45034;BMP280;30771;47.988;-4.186;2023-05-16T17:13:47;101521.69;;;18.63
45034;BMP280;30771;47.988;-4.186;2023-05-16T17:16:12;101516.16;;;18.53
45034;BMP280;30771;47.988;-4.186;2023-05-16T17:18:38;101521.69;;;18.52
45034;BMP280;30771;47.988;-4.186;2023-05-16T17:21:04;101515.78;;;18.50
45034;BMP280;30771;47.988;-4.186;2023-05-16T17:23:30;101518.44;;;18.38
45034;BMP280;30771;47.988;-4.186;2023-05-16T17:25:56;101518.41;;;18.26
45034;BMP280;30771;47.988;-4.186;2023-05-16T17:28:22;101511.22;;;18.27
45034;BMP280;30771;47.988;-4.186;2023-05-16T17:30:47;101519.44;;;18.25
45034;BMP280;30771;47.988;-4.186;2023-05-16T17:33:12;101521.06;;;18.26
45034;BMP280;30771;47.988;-4.186;2023-05-16T17:35:38;101514.63;;;18.46
45034;BMP280;30771;47.988;-4.186;2023-05-16T17:38:04;101498.53;;;18.75
45034;BMP280;30771;47.988;-4.186;2023-05-16T17:40:29;101482.59;;;19.03
45034;BMP280;30771;47.988;-4.186;2023-05-16T17:42:55;101505.66;;;19.21
45034;BMP280;30771;47.988;-4.186;2023-05-16T17:45:21;101519.81;;;19.10
45034;BMP280;30771;47.988;-4.186;2023-05-16T17:47:46;101519.63;;;19.11
45034;BMP280;30771;47.988;-4.186;2023-05-16T17:50:12;101511.75;;;19.56
45034;BMP280;30771;47.988;-4.186;2023-05-16T17:52:38;101496.91;;;20.76
45034;BMP280;30771;47.988;-4.186;2023-05-16T17:55:05;101478.16;;;21.99
45034;BMP280;30771;47.988;-4.186;2023-05-16T17:57:30;101477.91;;;22.88
45034;BMP280;30771;47.988;-4.186;2023-05-16T17:59:56;101484.75;;;23.21
45034;BMP280;30771;47.988;-4.186;2023-05-16T18:02:21;101489.91;;;23.52
45034;BMP280;30771;47.988;-4.186;2023-05-16T18:04:46;101488.34;;;23.71
45034;BMP280;30771;47.988;-4.186;2023-05-16T18:07:12;101495.03;;;23.84
45034;BMP280;30771;47.988;-4.186;2023-05-16T18:09:38;101487.72;;;24.40
45034;BMP280;30771;47.988;-4.186;2023-05-16T18:12:03;101484.94;;;24.60
45034;BMP280;30771;47.988;-4.186;2023-05-16T18:14:29;101477.72;;;25.04
45034;BMP280;30771;47.988;-4.186;2023-05-16T18:16:54;101485.50;;;25.15
45034;BMP280;30771;47.988;-4.186;2023-05-16T18:19:19;101486.75;;;25.28
45034;BMP280;30771;47.988;-4.186;2023-05-16T18:21:45;101479.72;;;25.65
45034;BMP280;30771;47.988;-4.186;2023-05-16T18:24:10;101479.06;;;25.78
45034;BMP280;30771;47.988;-4.186;2023-05-16T18:26:37;101498.75;;;25.45
45034;BMP280;30771;47.988;-4.186;2023-05-16T18:29:02;101503.72;;;25.28
45034;BMP280;30771;47.988;-4.186;2023-05-16T18:31:27;101505.91;;;25.26
45034;BMP280;30771;47.988;-4.186;2023-05-16T18:33:54;101505.69;;;25.18
45034;BMP280;30771;47.988;-4.186;2023-05-16T18:36:19;101507.06;;;25.15
45034;BMP280;30771;47.988;-4.186;2023-05-16T18:38:45;101515.31;;;24.85
45034;BMP280;30771;47.988;-4.186;2023-05-16T18:41:10;101501.41;;;25.12
45034;BMP280;30771;47.988;-4.186;2023-05-16T18:43:35;101499.28;;;25.47
45034;BMP280;30771;47.988;-4.186;2023-05-16T18:46:01;101513.69;;;25.33
45034;BMP280;30771;47.988;-4.186;2023-05-16T18:48:26;101518.19;;;24.99
45034;BMP280;30771;47.988;-4.186;2023-05-16T18:50:52;101520.97;;;24.89
45034;BMP280;30771;47.988;-4.186;2023-05-16T18:53:18;101531.81;;;24.69
45034;BMP280;30771;47.988;-4.186;2023-05-16T18:55:43;101531.03;;;24.53
45034;BMP280;30771;47.988;-4.186;2023-05-16T18:58:08;101527.84;;;24.36
45034;BMP280;30771;47.988;-4.186;2023-05-16T19:00:33;101525.44;;;24.05
45034;BMP280;30771;47.988;-4.186;2023-05-16T19:02:59;101525.44;;;23.74
45034;BMP280;30771;47.988;-4.186;2023-05-16T19:05:24;101551.16;;;22.69
45034;BMP280;30771;47.988;-4.186;2023-05-16T19:07:50;101578.44;;;21.23
45034;BMP280;30771;47.988;-4.186;2023-05-16T19:10:15;101581.91;;;19.91
45034;BMP280;30771;47.988;-4.186;2023-05-16T19:12:40;101584.63;;;18.94
45034;BMP280;30771;47.988;-4.186;2023-05-16T19:15:10;101582.88;;;18.05
45034;BMP280;30771;47.988;-4.186;2023-05-16T19:17:36;101584.94;;;17.38
45034;BMP280;30771;47.988;-4.186;2023-05-16T19:20:02;101575.34;;;16.87
45034;BMP280;30771;47.988;-4.186;2023-05-16T19:22:28;101568.88;;;16.52
45034;BMP280;30771;47.988;-4.186;2023-05-16T19:24:54;101566.59;;;16.18
45034;BMP280;30771;47.988;-4.186;2023-05-16T19:27:19;101561.56;;;15.91
45034;BMP280;30771;47.988;-4.186;2023-05-16T19:29:44;101556.16;;;15.66
45034;BMP280;30771;47.988;-4.186;2023-05-16T19:32:09;101544.53;;;15.47